createdAt,value
2023-03-07T00:01:01.520Z,4.36
2023-03-07T00:02:03.953Z,4.43
2023-03-07T00:03:06.470Z,4.45
2023-03-07T00:04:08.465Z,4.45
2023-03-07T00:05:10.351Z,4.49
2023-03-07T00:06:12.274Z,4.52
2023-03-07T00:07:14.839Z,4.53
2023-03-07T00:08:16.727Z,4.54
2023-03-07T00:09:18.600Z,4.57
2023-03-07T00:10:20.474Z,4.59
2023-03-07T00:11:22.539Z,4.63
2023-03-07T00:12:24.849Z,4.65
2023-03-07T00:13:28.892Z,4.69
2023-03-07T00:14:30.755Z,4.72
2023-03-07T00:15:32.637Z,4.73
2023-03-07T00:16:34.750Z,4.77
2023-03-07T00:17:37.364Z,4.76
2023-03-07T00:18:39.223Z,4.72
2023-03-07T00:19:44.196Z,4.68
2023-03-07T00:20:46.088Z,4.66
2023-03-07T00:21:48.096Z,4.66
2023-03-07T00:22:50.064Z,4.67
2023-03-07T00:23:52.798Z,4.69
2023-03-07T00:24:54.570Z,4.70
2023-03-07T00:26:07.198Z,4.71
2023-03-07T00:27:09.211Z,4.72
2023-03-07T00:28:11.093Z,4.71
2023-03-07T00:29:13.055Z,4.66
2023-03-07T00:30:15.098Z,4.64
2023-03-07T00:31:17.730Z,4.59
2023-03-07T00:32:19.643Z,4.57
2023-03-07T00:33:22.956Z,4.57
2023-03-07T00:34:24.887Z,4.58
2023-03-07T00:35:26.827Z,4.54
2023-03-07T00:36:28.696Z,4.56
2023-03-07T00:37:31.204Z,4.56
2023-03-07T00:38:33.527Z,4.52
2023-03-07T00:39:38.305Z,4.51
2023-03-07T00:40:40.126Z,4.55
2023-03-07T00:41:41.984Z,4.59
2023-03-07T00:42:43.828Z,4.61
2023-03-07T00:43:47.363Z,4.64
2023-03-07T00:44:49.306Z,4.66
2023-03-07T00:45:51.222Z,4.68
2023-03-07T00:46:53.171Z,4.68
2023-03-07T00:47:56.425Z,4.71
2023-03-07T00:48:58.548Z,4.71
2023-03-07T00:50:00.473Z,4.71
2023-03-07T00:51:02.531Z,4.70
2023-03-07T00:52:04.490Z,4.70
2023-03-07T00:53:06.321Z,4.68
2023-03-07T00:54:08.220Z,4.67
2023-03-07T00:55:10.282Z,4.59
2023-03-07T00:56:12.183Z,4.49
2023-03-07T00:57:13.989Z,4.44
2023-03-07T00:58:15.851Z,4.44
2023-03-07T00:59:17.745Z,4.46
2023-03-07T01:00:19.748Z,4.45
2023-03-07T01:01:24.104Z,4.47
2023-03-07T01:02:25.953Z,4.47
2023-03-07T01:03:28.300Z,4.48
2023-03-07T01:04:30.460Z,4.46
2023-03-07T01:05:32.291Z,4.44
2023-03-07T01:06:34.794Z,4.47
2023-03-07T01:07:36.718Z,4.44
2023-03-07T01:08:38.624Z,4.37
2023-03-07T01:09:40.433Z,4.31
2023-03-07T01:10:42.810Z,4.25
2023-03-07T01:11:44.746Z,4.19
2023-03-07T01:12:46.692Z,4.08
2023-03-07T01:13:48.532Z,4.10
2023-03-07T01:14:51.271Z,4.08
2023-03-07T01:15:53.114Z,4.06
2023-03-07T01:16:55.123Z,4.00
2023-03-07T01:17:57.232Z,3.94
2023-03-07T01:19:00.652Z,3.81
2023-03-07T01:20:05.870Z,3.83
2023-03-07T01:21:28.217Z,3.75
2023-03-07T01:22:31.584Z,3.76
2023-03-07T01:23:33.485Z,3.78
2023-03-07T01:24:35.287Z,3.76
2023-03-07T01:25:38.641Z,3.66
2023-03-07T01:26:40.607Z,3.62
2023-03-07T01:27:42.510Z,3.61
2023-03-07T01:28:44.392Z,3.65
2023-03-07T01:29:46.406Z,3.69
2023-03-07T01:30:56.937Z,3.69
2023-03-07T01:31:58.858Z,3.69
2023-03-07T01:33:01.597Z,3.71
2023-03-07T01:34:04.184Z,3.73
2023-03-07T01:35:06.207Z,3.79
2023-03-07T01:36:34.388Z,3.88
2023-03-07T01:37:36.231Z,3.88
2023-03-07T01:38:38.123Z,3.81
2023-03-07T01:39:40.022Z,3.77
2023-03-07T01:40:41.974Z,3.80
2023-03-07T01:41:44.581Z,3.87
2023-03-07T01:42:46.763Z,3.88
2023-03-07T01:43:48.735Z,3.91
2023-03-07T01:45:05.061Z,3.85
2023-03-07T01:46:19.273Z,3.77
2023-03-07T01:47:21.111Z,3.76
2023-03-07T01:48:22.983Z,3.77
2023-03-07T01:49:33.101Z,3.64
2023-03-07T01:50:35.021Z,3.49
2023-03-07T01:51:38.253Z,3.43
2023-03-07T01:52:41.863Z,3.43
2023-03-07T01:53:44.100Z,3.29
2023-03-07T01:54:49.400Z,3.21
2023-03-07T01:55:51.247Z,3.19
2023-03-07T01:56:53.722Z,3.17
2023-03-07T01:57:57.061Z,3.18
2023-03-07T01:58:58.954Z,3.19
2023-03-07T02:00:06.015Z,3.26
2023-03-07T02:01:10.106Z,3.28
2023-03-07T02:02:13.858Z,3.34
2023-03-07T02:03:15.675Z,3.38
2023-03-07T02:04:20.252Z,3.42
2023-03-07T02:05:26.029Z,3.45
2023-03-07T02:06:29.401Z,3.42
2023-03-07T02:07:33.929Z,3.44
2023-03-07T02:08:37.405Z,3.40
2023-03-07T02:09:39.469Z,3.43
2023-03-07T02:10:42.122Z,3.44
2023-03-07T02:11:45.169Z,3.37
2023-03-07T02:12:47.568Z,3.36
2023-03-07T02:13:49.909Z,3.43
2023-03-07T02:14:52.365Z,3.49
2023-03-07T02:15:54.461Z,3.50
2023-03-07T02:16:56.360Z,3.43
2023-03-07T02:18:01.380Z,3.35
2023-03-07T02:19:03.386Z,3.38
2023-03-07T02:20:08.060Z,3.36
2023-03-07T02:21:15.934Z,3.30
2023-03-07T02:22:19.173Z,3.26
2023-03-07T02:23:44.535Z,3.20
2023-03-07T02:25:08.300Z,3.13
2023-03-07T02:26:14.044Z,3.10
2023-03-07T02:27:16.076Z,3.15
2023-03-07T02:28:19.387Z,3.17
2023-03-07T02:29:21.450Z,3.11
2023-03-07T02:30:23.340Z,3.09
2023-03-07T02:31:25.584Z,3.09
2023-03-07T02:32:27.571Z,3.06
2023-03-07T02:33:29.969Z,3.11
2023-03-07T02:34:32.036Z,3.07
2023-03-07T02:35:33.930Z,3.10
2023-03-07T02:36:36.494Z,3.17
2023-03-07T02:37:39.156Z,3.22
2023-03-07T02:38:43.157Z,3.30
2023-03-07T02:39:46.098Z,3.31
2023-03-07T02:40:48.167Z,3.25
2023-03-07T02:41:51.340Z,3.25
2023-03-07T02:42:55.238Z,3.29
2023-03-07T02:43:57.156Z,3.35
2023-03-07T02:45:00.722Z,3.37
2023-03-07T02:46:02.650Z,3.32
2023-03-07T02:47:09.180Z,3.25
2023-03-07T02:48:11.189Z,3.28
2023-03-07T02:49:13.076Z,3.23
2023-03-07T02:50:15.470Z,3.21
2023-03-07T02:51:17.325Z,3.15
2023-03-07T02:52:19.731Z,3.08
2023-03-07T02:53:21.722Z,3.02
2023-03-07T02:54:23.914Z,3.05
2023-03-07T02:55:25.840Z,3.11
2023-03-07T02:56:27.765Z,3.14
2023-03-07T02:57:29.572Z,2.98
2023-03-07T02:58:31.535Z,2.88
2023-03-07T02:59:33.537Z,2.85
2023-03-07T03:00:35.377Z,2.85
2023-03-07T03:01:37.350Z,2.84
2023-03-07T03:02:39.287Z,2.79
2023-03-07T03:03:41.221Z,2.77
2023-03-07T03:04:43.199Z,2.77
2023-03-07T03:05:45.289Z,2.72
2023-03-07T03:06:47.140Z,2.66
2023-03-07T03:07:49.071Z,2.63
2023-03-07T03:08:51.062Z,2.65
2023-03-07T03:09:52.911Z,2.67
2023-03-07T03:10:55.255Z,2.69
2023-03-07T03:11:57.650Z,2.62
2023-03-07T03:12:59.544Z,2.53
2023-03-07T03:14:01.410Z,2.41
2023-03-07T03:15:03.451Z,2.44
2023-03-07T03:16:06.327Z,2.49
2023-03-07T03:17:08.279Z,2.53
2023-03-07T03:18:10.101Z,2.51
2023-03-07T03:19:12.087Z,2.48
2023-03-07T03:20:14.281Z,2.46
2023-03-07T03:21:16.210Z,2.38
2023-03-07T03:22:18.269Z,2.37
2023-03-07T03:23:20.165Z,2.39
2023-03-07T03:24:21.993Z,2.44
2023-03-07T03:25:25.474Z,2.52
2023-03-07T03:26:27.443Z,2.51
2023-03-07T03:27:32.021Z,2.53
2023-03-07T03:28:35.301Z,2.59
2023-03-07T03:29:37.440Z,2.62
2023-03-07T03:30:40.701Z,2.63
2023-03-07T03:31:42.583Z,2.65
2023-03-07T03:32:44.805Z,2.57
2023-03-07T03:33:46.667Z,2.45
2023-03-07T03:34:48.476Z,2.41
2023-03-07T03:35:51.027Z,2.36
2023-03-07T03:36:52.972Z,2.35
2023-03-07T03:37:54.969Z,2.32
2023-03-07T03:38:58.594Z,2.23
2023-03-07T03:40:00.610Z,2.18
2023-03-07T03:41:06.651Z,2.22
2023-03-07T03:42:09.075Z,2.29
2023-03-07T03:43:10.988Z,2.24
2023-03-07T03:44:12.911Z,2.22
2023-03-07T03:45:17.486Z,2.29
2023-03-07T03:46:20.058Z,2.35
2023-03-07T03:47:21.888Z,2.44
2023-03-07T03:48:24.246Z,2.50
2023-03-07T03:49:26.217Z,2.48
2023-03-07T03:50:28.145Z,2.42
2023-03-07T03:51:30.283Z,2.46
2023-03-07T03:52:32.155Z,2.51
2023-03-07T03:53:35.312Z,2.50
2023-03-07T03:54:37.139Z,2.44
2023-03-07T03:55:39.088Z,2.42
2023-03-07T03:56:40.956Z,2.44
2023-03-07T03:57:42.854Z,2.50
2023-03-07T03:58:47.016Z,2.51
2023-03-07T03:59:49.475Z,2.54
2023-03-07T04:00:51.325Z,2.58
2023-03-07T04:01:55.500Z,2.62
2023-03-07T04:02:57.534Z,2.65
2023-03-07T04:03:59.656Z,2.67
2023-03-07T04:05:01.551Z,2.70
2023-03-07T04:06:07.967Z,2.67
2023-03-07T04:07:09.869Z,2.62
2023-03-07T04:08:11.757Z,2.62
2023-03-07T04:09:13.632Z,2.61
2023-03-07T04:10:15.625Z,2.56
2023-03-07T04:11:17.564Z,2.57
2023-03-07T04:12:19.539Z,2.59
2023-03-07T04:13:21.433Z,2.59
2023-03-07T04:14:23.484Z,2.58
2023-03-07T04:15:25.520Z,2.52
2023-03-07T04:16:27.521Z,2.49
2023-03-07T04:17:29.354Z,2.47
2023-03-07T04:18:31.172Z,2.49
2023-03-07T04:19:33.541Z,2.51
2023-03-07T04:20:35.456Z,2.54
2023-03-07T04:21:37.417Z,2.53
2023-03-07T04:22:39.309Z,2.50
2023-03-07T04:23:41.192Z,2.43
2023-03-07T04:24:43.092Z,2.40
2023-03-07T04:25:49.026Z,2.40
2023-03-07T04:26:51.005Z,2.43
2023-03-07T04:27:52.865Z,2.47
2023-03-07T04:28:54.825Z,2.51
2023-03-07T04:29:57.278Z,2.52
2023-03-07T04:30:59.305Z,2.49
2023-03-07T04:32:01.399Z,2.42
2023-03-07T04:33:03.221Z,2.42
2023-03-07T04:34:05.166Z,2.43
2023-03-07T04:35:07.155Z,2.47
2023-03-07T04:36:09.642Z,2.51
2023-03-07T04:37:11.466Z,2.53
2023-03-07T04:38:13.794Z,2.54
2023-03-07T04:39:15.772Z,2.48
2023-03-07T04:40:17.661Z,2.42
2023-03-07T04:41:23.835Z,2.38
2023-03-07T04:42:25.734Z,2.39
2023-03-07T04:43:27.648Z,2.36
2023-03-07T04:44:29.585Z,2.36
2023-03-07T04:45:32.762Z,2.35
2023-03-07T04:46:34.721Z,2.34
2023-03-07T04:47:36.572Z,2.32
2023-03-07T04:48:38.389Z,2.35
2023-03-07T04:49:40.205Z,2.38
2023-03-07T04:50:42.055Z,2.40
2023-03-07T04:51:44.224Z,2.36
2023-03-07T04:52:46.312Z,2.33
2023-03-07T04:53:48.141Z,2.34
2023-03-07T04:54:50.069Z,2.34
2023-03-07T04:55:52.213Z,2.34
2023-03-07T04:56:54.152Z,2.37
2023-03-07T04:57:57.983Z,2.40
2023-03-07T04:58:59.885Z,2.43
2023-03-07T05:00:01.794Z,2.43
2023-03-07T05:01:05.109Z,2.42
2023-03-07T05:02:07.984Z,2.42
2023-03-07T05:03:10.490Z,2.43
2023-03-07T05:04:12.362Z,2.40
2023-03-07T05:05:14.287Z,2.33
2023-03-07T05:06:16.626Z,2.30
2023-03-07T05:07:18.584Z,2.29
2023-03-07T05:08:21.352Z,2.27
2023-03-07T05:09:23.166Z,2.25
2023-03-07T05:10:25.052Z,2.21
2023-03-07T05:11:26.954Z,2.16
2023-03-07T05:12:28.948Z,2.19
2023-03-07T05:13:31.434Z,2.23
2023-03-07T05:14:33.276Z,2.20
2023-03-07T05:15:35.822Z,2.23
2023-03-07T05:16:37.769Z,2.26
2023-03-07T05:17:39.675Z,2.26
2023-03-07T05:18:41.571Z,2.27
2023-03-07T05:19:43.443Z,2.32
2023-03-07T05:20:45.417Z,2.34
2023-03-07T05:21:49.369Z,2.34
2023-03-07T05:22:51.373Z,2.28
2023-03-07T05:23:53.197Z,2.26
2023-03-07T05:24:55.082Z,2.25
2023-03-07T05:25:57.040Z,2.24
2023-03-07T05:26:58.907Z,2.26
2023-03-07T05:28:00.812Z,2.27
2023-03-07T05:29:02.690Z,2.30
2023-03-07T05:30:06.182Z,2.33
2023-03-07T05:31:08.214Z,2.33
2023-03-07T05:32:11.363Z,2.35
2023-03-07T05:33:13.408Z,2.25
2023-03-07T05:34:16.349Z,2.24
2023-03-07T05:35:18.308Z,2.19
2023-03-07T05:36:20.246Z,2.17
2023-03-07T05:37:22.102Z,2.20
2023-03-07T05:38:24.006Z,2.27
2023-03-07T05:39:27.833Z,2.31
2023-03-07T05:40:29.911Z,2.36
2023-03-07T05:41:32.184Z,2.41
2023-03-07T05:42:34.130Z,2.44
2023-03-07T05:43:36.682Z,2.50
2023-03-07T05:44:38.609Z,2.54
2023-03-07T05:45:40.573Z,2.50
2023-03-07T05:46:42.444Z,2.51
2023-03-07T05:47:44.983Z,2.55
2023-03-07T05:48:47.429Z,2.56
2023-03-07T05:49:49.805Z,2.55
2023-03-07T05:50:51.764Z,2.55
2023-03-07T05:51:53.727Z,2.56
2023-03-07T05:52:55.589Z,2.56
2023-03-07T05:53:57.479Z,2.57
2023-03-07T05:54:59.348Z,2.62
2023-03-07T05:56:01.296Z,2.65
2023-03-07T05:57:03.193Z,2.65
2023-03-07T05:58:06.164Z,2.65
2023-03-07T05:59:08.246Z,2.68
2023-03-07T06:00:11.932Z,2.72
2023-03-07T06:01:13.829Z,2.76
2023-03-07T06:02:15.694Z,2.76
2023-03-07T06:03:17.584Z,2.74
2023-03-07T06:04:19.407Z,2.73
2023-03-07T06:05:21.215Z,2.76
2023-03-07T06:06:23.071Z,2.74
2023-03-07T06:07:25.067Z,2.69
2023-03-07T06:08:26.958Z,2.72
2023-03-07T06:09:28.873Z,2.76
2023-03-07T06:10:30.861Z,2.77
2023-03-07T06:11:33.048Z,2.76
2023-03-07T06:12:34.994Z,2.77
2023-03-07T06:13:36.985Z,2.77
2023-03-07T06:14:38.978Z,2.76
2023-03-07T06:15:40.978Z,2.78
2023-03-07T06:16:42.886Z,2.78
2023-03-07T06:17:44.901Z,2.79
2023-03-07T06:18:46.762Z,2.84
2023-03-07T06:19:48.657Z,2.86
2023-03-07T06:20:56.969Z,2.86
2023-03-07T06:21:58.856Z,2.86
2023-03-07T06:23:01.422Z,2.84
2023-03-07T06:24:03.495Z,2.86
2023-03-07T06:25:06.160Z,2.90
2023-03-07T06:26:08.744Z,2.92
2023-03-07T06:27:10.670Z,2.94
2023-03-07T06:28:12.628Z,2.92
2023-03-07T06:29:14.605Z,2.92
2023-03-07T06:30:16.619Z,2.92
2023-03-07T06:31:19.774Z,2.95
2023-03-07T06:32:21.793Z,2.93
2023-03-07T06:33:23.854Z,2.88
2023-03-07T06:34:25.914Z,2.84
2023-03-07T06:35:27.794Z,2.74
2023-03-07T06:36:29.792Z,2.77
2023-03-07T06:37:32.159Z,2.80
2023-03-07T06:38:34.061Z,2.83
2023-03-07T06:39:36.200Z,2.87
2023-03-07T06:40:38.510Z,2.89
2023-03-07T06:41:40.345Z,2.90
2023-03-07T06:42:42.212Z,2.92
2023-03-07T06:43:44.091Z,2.97
2023-03-07T06:44:46.038Z,2.99
2023-03-07T06:45:47.903Z,3.03
2023-03-07T06:46:49.831Z,3.03
2023-03-07T06:47:51.890Z,2.99
2023-03-07T06:48:55.469Z,2.94
2023-03-07T06:49:57.489Z,2.90
2023-03-07T06:50:59.388Z,2.86
2023-03-07T06:52:01.552Z,2.84
2023-03-07T06:53:03.538Z,2.80
2023-03-07T06:54:05.410Z,2.86
2023-03-07T06:55:07.703Z,2.89
2023-03-07T06:56:09.655Z,2.91
2023-03-07T06:57:11.508Z,2.89
2023-03-07T06:58:13.379Z,2.87
2023-03-07T06:59:15.362Z,2.89
2023-03-07T07:00:17.574Z,2.89
2023-03-07T07:01:20.641Z,2.89
2023-03-07T07:02:22.751Z,2.92
2023-03-07T07:03:25.192Z,2.95
2023-03-07T07:04:27.092Z,2.97
2023-03-07T07:05:29.045Z,2.97
2023-03-07T07:06:30.979Z,2.93
2023-03-07T07:07:32.911Z,2.96
2023-03-07T07:08:34.796Z,2.98
2023-03-07T07:09:36.740Z,2.94
2023-03-07T07:10:38.757Z,2.87
2023-03-07T07:11:40.756Z,2.87
2023-03-07T07:12:42.669Z,2.86
2023-03-07T07:13:46.192Z,2.88
2023-03-07T07:14:48.149Z,2.96
2023-03-07T07:15:50.047Z,3.02
2023-03-07T07:16:52.044Z,3.10
2023-03-07T07:17:54.020Z,3.18
2023-03-07T07:18:55.999Z,3.23
2023-03-07T07:19:57.958Z,3.21
2023-03-07T07:21:00.056Z,3.15
2023-03-07T07:22:01.934Z,3.16
2023-03-07T07:23:03.841Z,3.24
2023-03-07T07:24:05.872Z,3.32
2023-03-07T07:25:07.914Z,3.39
2023-03-07T07:26:10.125Z,3.45
2023-03-07T07:27:12.657Z,3.51
2023-03-07T07:28:14.555Z,3.49
2023-03-07T07:29:16.646Z,3.54
2023-03-07T07:30:18.597Z,3.45
2023-03-07T07:31:20.654Z,3.34
2023-03-07T07:32:22.814Z,3.32
2023-03-07T07:33:24.896Z,3.40
2023-03-07T07:34:27.208Z,3.47
2023-03-07T07:35:29.126Z,3.50
2023-03-07T07:36:31.089Z,3.50
2023-03-07T07:37:32.938Z,3.56
2023-03-07T07:38:35.587Z,3.57
2023-03-07T07:39:37.588Z,3.52
2023-03-07T07:40:39.617Z,3.51
2023-03-07T07:41:41.555Z,3.53
2023-03-07T07:42:43.829Z,3.57
2023-03-07T07:43:48.527Z,3.64
2023-03-07T07:44:50.377Z,3.72
2023-03-07T07:45:52.305Z,3.77
2023-03-07T07:46:54.388Z,3.80
2023-03-07T07:47:56.471Z,3.88
2023-03-07T07:48:58.366Z,3.91
2023-03-07T07:50:00.304Z,3.95
2023-03-07T07:51:03.136Z,4.00
2023-03-07T07:52:05.347Z,3.98
2023-03-07T07:53:07.241Z,3.94
2023-03-07T07:54:10.009Z,3.88
2023-03-07T07:55:14.508Z,3.87
2023-03-07T07:56:16.545Z,3.94
2023-03-07T07:57:18.488Z,4.04
2023-03-07T07:58:20.352Z,4.07
2023-03-07T07:59:22.273Z,4.13
2023-03-07T08:00:24.298Z,4.22
2023-03-07T08:01:26.222Z,4.30
2023-03-07T08:02:29.131Z,4.35
2023-03-07T08:03:32.756Z,4.43
2023-03-07T08:04:35.935Z,4.50
2023-03-07T08:05:38.029Z,4.55
2023-03-07T08:06:40.021Z,4.52
2023-03-07T08:07:41.878Z,4.55
2023-03-07T08:08:43.773Z,4.60
2023-03-07T08:09:45.595Z,4.68
2023-03-07T08:10:47.918Z,4.76
2023-03-07T08:11:49.968Z,4.79
2023-03-07T08:12:52.098Z,4.83
2023-03-07T08:13:54.019Z,4.88
2023-03-07T08:14:55.917Z,4.91
2023-03-07T08:15:57.849Z,4.93
2023-03-07T08:16:59.732Z,4.99
2023-03-07T08:18:01.574Z,5.06
2023-03-07T08:19:03.477Z,5.01
2023-03-07T08:20:10.099Z,5.04
2023-03-07T08:21:11.943Z,5.03
2023-03-07T08:22:13.884Z,5.00
2023-03-07T08:23:15.698Z,5.04
2023-03-07T08:24:17.608Z,5.07
2023-03-07T08:25:22.381Z,5.12
2023-03-07T08:26:24.900Z,5.11
2023-03-07T08:27:27.877Z,5.12
2023-03-07T08:28:29.773Z,5.13
2023-03-07T08:29:33.299Z,5.13
2023-03-07T08:30:36.050Z,5.20
2023-03-07T08:31:37.939Z,5.31
2023-03-07T08:32:39.809Z,5.37
2023-03-07T08:33:42.276Z,5.37
2023-03-07T08:34:44.113Z,5.35
2023-03-07T08:35:46.118Z,5.45
2023-03-07T08:36:47.996Z,5.53
2023-03-07T08:37:54.321Z,5.52
2023-03-07T08:38:56.186Z,5.56
2023-03-07T08:39:58.060Z,5.55
2023-03-07T08:41:04.681Z,5.53
2023-03-07T08:42:07.210Z,5.55
2023-03-07T08:43:09.157Z,5.59
2023-03-07T08:44:11.139Z,5.57
2023-03-07T08:45:13.256Z,5.58
2023-03-07T08:46:15.748Z,5.65
2023-03-07T08:47:17.812Z,5.73
2023-03-07T08:48:21.076Z,5.71
2023-03-07T08:49:22.973Z,5.72
2023-03-07T08:50:32.987Z,5.69
2023-03-07T08:51:35.278Z,5.72
2023-03-07T08:52:37.198Z,5.81
2023-03-07T08:53:39.475Z,5.90
2023-03-07T08:54:41.468Z,6.01
2023-03-07T08:55:46.254Z,6.07
2023-03-07T08:56:48.216Z,6.14
2023-03-07T08:57:50.153Z,6.25
2023-03-07T08:58:55.256Z,6.32
2023-03-07T08:59:57.058Z,6.36
2023-03-07T09:00:59.230Z,6.30
2023-03-07T09:02:01.201Z,6.37
2023-03-07T09:03:03.382Z,6.48
2023-03-07T09:04:05.526Z,6.56
2023-03-07T09:05:07.627Z,6.61
2023-03-07T09:06:15.623Z,6.68
2023-03-07T09:07:17.532Z,6.74
2023-03-07T09:08:19.488Z,6.78
2023-03-07T09:09:21.486Z,6.81
2023-03-07T09:10:23.437Z,6.86
2023-03-07T09:11:26.891Z,6.89
2023-03-07T09:12:28.766Z,6.97
2023-03-07T09:13:31.251Z,7.07
2023-03-07T09:14:33.941Z,7.12
2023-03-07T09:15:38.454Z,7.16
2023-03-07T09:16:40.418Z,7.15
2023-03-07T09:17:42.337Z,7.09
2023-03-07T09:18:44.183Z,7.11
2023-03-07T09:19:46.180Z,7.17
2023-03-07T09:20:48.047Z,7.16
2023-03-07T09:21:50.670Z,7.20
2023-03-07T09:22:54.496Z,7.22
2023-03-07T09:23:56.524Z,7.30
2023-03-07T09:24:58.446Z,7.40
2023-03-07T09:26:00.790Z,7.44
2023-03-07T09:27:02.714Z,7.49
2023-03-07T09:28:04.508Z,7.48
2023-03-07T09:29:06.351Z,7.47
2023-03-07T09:30:08.897Z,7.38
2023-03-07T09:31:11.912Z,7.31
2023-03-07T09:32:14.036Z,7.30
2023-03-07T09:33:16.050Z,7.40
2023-03-07T09:34:17.984Z,7.49
2023-03-07T09:35:19.897Z,7.58
2023-03-07T09:36:21.707Z,7.66
2023-03-07T09:37:23.594Z,7.74
2023-03-07T09:38:25.413Z,7.81
2023-03-07T09:39:27.467Z,7.84
2023-03-07T09:40:29.589Z,7.82
2023-03-07T09:41:34.167Z,7.76
2023-03-07T09:42:59.213Z,7.70
2023-03-07T09:44:18.378Z,7.74
2023-03-07T09:45:38.515Z,7.84
2023-03-07T09:46:40.643Z,7.90
2023-03-07T09:47:42.525Z,7.95
2023-03-07T09:48:48.174Z,8.02
2023-03-07T09:49:50.950Z,8.11
2023-03-07T09:50:55.519Z,8.28
2023-03-07T09:51:59.443Z,8.41
2023-03-07T09:53:03.474Z,8.47
2023-03-07T09:54:22.057Z,8.50
2023-03-07T09:55:25.406Z,8.60
2023-03-07T09:56:33.592Z,8.72
2023-03-07T09:57:54.087Z,8.82
2023-03-07T09:59:17.106Z,8.96
2023-03-07T10:00:23.663Z,9.08
2023-03-07T10:01:26.971Z,9.17
2023-03-07T10:02:33.134Z,9.22
2023-03-07T10:03:35.019Z,9.21
2023-03-07T10:04:47.281Z,9.25
2023-03-07T10:05:50.581Z,9.32
2023-03-07T10:06:57.971Z,9.41
2023-03-07T10:08:01.961Z,9.52
2023-03-07T10:09:05.780Z,9.60
2023-03-07T10:10:13.149Z,9.65
2023-03-07T10:11:33.510Z,9.63
2023-03-07T10:12:53.858Z,9.67
2023-03-07T10:14:01.666Z,9.74
2023-03-07T10:15:16.167Z,9.87
2023-03-07T10:16:24.943Z,9.96
2023-03-07T10:17:45.329Z,10.00
2023-03-07T10:19:00.364Z,10.09
2023-03-07T10:20:13.460Z,10.19
2023-03-07T10:21:18.071Z,10.29
2023-03-07T10:22:38.268Z,10.34
2023-03-07T10:23:41.508Z,10.40
2023-03-07T10:25:02.054Z,10.50
2023-03-07T10:26:03.959Z,10.39
2023-03-07T10:27:07.302Z,10.34
2023-03-07T10:28:11.902Z,10.43
2023-03-07T10:29:22.923Z,10.45
2023-03-07T10:30:24.941Z,10.54
2023-03-07T10:31:30.815Z,10.57
2023-03-07T10:32:35.510Z,10.69
2023-03-07T10:33:40.778Z,10.81
2023-03-07T10:34:42.595Z,10.87
2023-03-07T10:35:48.700Z,10.88
2023-03-07T10:37:06.496Z,10.85
2023-03-07T10:38:19.460Z,10.85
2023-03-07T10:39:37.808Z,10.87
2023-03-07T10:40:49.287Z,10.94
2023-03-07T10:41:51.411Z,11.02
2023-03-07T10:42:54.521Z,11.01
2023-03-07T10:43:57.201Z,11.06
2023-03-07T10:44:59.280Z,10.99
2023-03-07T10:46:23.709Z,10.79
2023-03-07T10:47:28.679Z,10.78
2023-03-07T10:48:31.906Z,10.80
2023-03-07T10:49:37.832Z,10.65
2023-03-07T10:50:51.633Z,10.49
2023-03-07T10:52:02.247Z,10.46
2023-03-07T10:53:09.757Z,10.58
2023-03-07T10:54:14.758Z,10.72
2023-03-07T10:55:32.007Z,10.68
2023-03-07T10:56:34.073Z,10.69
2023-03-07T10:57:36.022Z,10.69
2023-03-07T10:58:38.106Z,10.70
2023-03-07T10:59:43.918Z,10.68
2023-03-07T11:00:47.051Z,10.55
2023-03-07T11:01:55.688Z,10.41
2023-03-07T11:02:57.637Z,10.35
2023-03-07T11:04:20.408Z,10.36
2023-03-07T11:05:31.561Z,10.48
2023-03-07T11:06:51.396Z,10.62
2023-03-07T11:07:53.283Z,10.71
2023-03-07T11:08:56.560Z,10.75
2023-03-07T11:09:59.526Z,10.76
2023-03-07T11:11:02.495Z,10.84
2023-03-07T11:12:10.553Z,10.97
2023-03-07T11:13:16.733Z,11.12
2023-03-07T11:14:19.077Z,11.24
2023-03-07T11:15:24.492Z,11.38
2023-03-07T11:16:26.550Z,11.56
2023-03-07T11:17:39.604Z,11.65
2023-03-07T11:18:42.713Z,11.65
2023-03-07T11:19:46.232Z,11.71
2023-03-07T11:20:49.336Z,11.75
2023-03-07T11:21:55.215Z,11.70
2023-03-07T11:23:16.237Z,11.67
2023-03-07T11:24:25.237Z,11.60
2023-03-07T11:25:27.246Z,11.66
2023-03-07T11:26:31.222Z,11.67
2023-03-07T11:27:34.899Z,11.55
2023-03-07T11:28:36.757Z,11.43
2023-03-07T11:29:38.797Z,11.27
2023-03-07T11:30:47.389Z,11.22
2023-03-07T11:31:49.294Z,11.04
2023-03-07T11:32:51.162Z,10.89
2023-03-07T11:33:59.435Z,10.77
2023-03-07T11:35:07.101Z,10.77
2023-03-07T11:36:14.461Z,10.80
2023-03-07T11:37:19.312Z,10.87
2023-03-07T11:38:27.481Z,10.91
2023-03-07T11:39:34.672Z,10.88
2023-03-07T11:40:43.843Z,10.85
2023-03-07T11:41:52.864Z,10.88
2023-03-07T11:42:59.249Z,10.87
2023-03-07T11:44:01.199Z,10.82
2023-03-07T11:45:21.323Z,10.78
2023-03-07T11:46:34.319Z,10.66
2023-03-07T11:47:44.108Z,10.66
2023-03-07T11:49:04.770Z,10.70
2023-03-07T11:50:21.473Z,10.82
2023-03-07T11:51:33.471Z,11.01
2023-03-07T11:52:44.003Z,11.10
2023-03-07T11:53:51.878Z,11.22
2023-03-07T11:55:12.277Z,11.33
2023-03-07T11:56:29.744Z,11.44
2023-03-07T11:57:52.410Z,11.43
2023-03-07T11:59:06.231Z,11.39
2023-03-07T12:00:46.711Z,11.33
2023-03-07T12:01:55.776Z,11.44
2023-03-07T12:02:57.739Z,11.61
2023-03-07T12:04:01.605Z,11.68
2023-03-07T12:05:15.574Z,11.64
2023-03-07T12:06:35.947Z,11.80
2023-03-07T12:07:40.688Z,11.88
2023-03-07T12:08:45.426Z,12.00
2023-03-07T12:10:02.171Z,12.01
2023-03-07T12:11:04.023Z,11.95
2023-03-07T12:12:12.573Z,11.85
2023-03-07T12:13:35.054Z,11.78
2023-03-07T12:14:39.524Z,11.70
2023-03-07T12:16:00.041Z,11.67
2023-03-07T12:17:20.355Z,11.63
2023-03-07T12:18:22.194Z,11.70
2023-03-07T12:19:33.007Z,11.95
2023-03-07T12:20:53.660Z,12.25
2023-03-07T12:22:14.427Z,12.47
2023-03-07T12:23:39.454Z,12.79
2023-03-07T12:24:55.616Z,12.98
2023-03-07T12:25:59.654Z,13.18
2023-03-07T12:27:10.649Z,13.28
2023-03-07T12:28:22.730Z,13.37
2023-03-07T12:29:27.963Z,13.29
2023-03-07T12:30:35.670Z,13.32
2023-03-07T12:31:39.802Z,13.33
2023-03-07T12:32:41.889Z,13.34
2023-03-07T12:33:47.065Z,13.36
2023-03-07T12:34:52.020Z,13.32
2023-03-07T12:35:57.416Z,13.25
2023-03-07T12:37:04.143Z,13.34
2023-03-07T12:38:21.323Z,13.45
2023-03-07T12:39:23.777Z,13.59
2023-03-07T12:40:39.783Z,13.78
2023-03-07T12:41:46.701Z,13.91
2023-03-07T12:42:54.256Z,14.01
2023-03-07T12:43:58.582Z,14.05
2023-03-07T12:45:06.800Z,14.15
2023-03-07T12:46:18.521Z,14.16
2023-03-07T12:47:24.124Z,14.26
2023-03-07T12:48:41.339Z,14.19
2023-03-07T12:49:50.145Z,14.30
2023-03-07T12:50:56.632Z,14.38
2023-03-07T12:52:01.057Z,14.48
2023-03-07T12:53:11.763Z,14.56
2023-03-07T12:54:19.961Z,14.66
2023-03-07T12:55:27.035Z,14.64
2023-03-07T12:56:36.377Z,14.70
2023-03-07T12:57:43.863Z,14.65
2023-03-07T12:58:58.874Z,14.63
2023-03-07T13:00:04.423Z,14.79
2023-03-07T13:01:22.068Z,14.83
2023-03-07T13:02:27.650Z,14.86
2023-03-07T13:03:29.534Z,14.85
2023-03-07T13:04:35.854Z,14.70
2023-03-07T13:05:38.188Z,14.73
2023-03-07T13:06:41.933Z,14.80
2023-03-07T13:07:44.781Z,14.78
2023-03-07T13:08:48.115Z,14.78
2023-03-07T13:09:51.287Z,14.84
2023-03-07T13:10:53.292Z,14.95
2023-03-07T13:12:09.793Z,15.09
2023-03-07T13:13:34.602Z,15.14
2023-03-07T13:14:40.655Z,15.15
2023-03-07T13:15:47.006Z,15.12
2023-03-07T13:16:49.721Z,14.96
2023-03-07T13:17:51.659Z,14.98
2023-03-07T13:18:53.608Z,14.77
2023-03-07T13:19:56.413Z,14.72
2023-03-07T13:21:21.443Z,14.65
2023-03-07T13:22:23.343Z,14.49
2023-03-07T13:23:26.880Z,14.33
2023-03-07T13:24:35.639Z,14.27
2023-03-07T13:25:42.595Z,14.20
2023-03-07T13:26:45.249Z,14.24
2023-03-07T13:27:47.117Z,14.25
2023-03-07T13:28:51.641Z,14.27
2023-03-07T13:30:02.618Z,14.32
2023-03-07T13:31:16.540Z,14.43
2023-03-07T13:32:36.936Z,14.40
2023-03-07T13:33:38.881Z,14.46
2023-03-07T13:34:48.102Z,14.35
2023-03-07T13:36:12.723Z,14.35
2023-03-07T13:37:37.864Z,14.46
2023-03-07T13:38:46.915Z,14.48
2023-03-07T13:40:05.854Z,14.57
2023-03-07T13:41:09.828Z,14.57
2023-03-07T13:42:30.100Z,14.57
2023-03-07T13:43:35.478Z,14.54
2023-03-07T13:44:39.009Z,14.40
2023-03-07T13:45:40.904Z,14.30
2023-03-07T13:46:42.960Z,14.06
2023-03-07T13:47:45.702Z,13.90
2023-03-07T13:48:47.568Z,13.86
2023-03-07T13:49:49.509Z,13.81
2023-03-07T13:50:51.310Z,13.79
2023-03-07T13:52:11.775Z,13.82
2023-03-07T13:53:34.040Z,13.88
2023-03-07T13:54:35.996Z,13.86
2023-03-07T13:56:01.488Z,13.89
2023-03-07T13:57:04.133Z,13.69
2023-03-07T13:58:16.698Z,13.62
2023-03-07T13:59:21.735Z,13.63
2023-03-07T14:00:30.842Z,13.69
2023-03-07T14:01:35.946Z,13.70
2023-03-07T14:02:40.134Z,13.49
2023-03-07T14:03:53.271Z,13.31
2023-03-07T14:04:58.077Z,13.27
2023-03-07T14:06:02.597Z,13.29
2023-03-07T14:07:25.240Z,13.32
2023-03-07T14:08:29.691Z,13.44
2023-03-07T14:09:40.576Z,13.53
2023-03-07T14:10:46.148Z,13.59
2023-03-07T14:12:09.693Z,13.57